Time;durP1;ratioP1;P1;durP2;ratioP2;P2;SDS_P1;SDS_P2;PMS_P1;PMS_P2;Temp;Humidity;BMP_temperature;BMP_pressure;BME280_temperature;BME280_humidity;BME280_pressure;Samples;Min_cycle;Max_cycle;Signal;HPM_P1;HPM_P2
2023/03/17 00:02:08;;;;;;;10.98;6.90;;;4.30;73.30;;;;;;4981571;28;20046;-61
2023/03/17 00:04:34;;;;;;;16.40;7.20;;;4.30;73.50;;;;;;4984573;28;20042;-60
2023/03/17 00:06:59;;;;;;;10.60;7.28;;;4.20;73.50;;;;;;4981103;28;20481;-61
2023/03/17 00:09:25;;;;;;;12.20;7.82;;;4.20;73.60;;;;;;4984726;28;20042;-61
2023/03/17 00:11:50;;;;;;;11.02;7.30;;;4.10;73.60;;;;;;4974776;28;20065;-62
2023/03/17 00:14:17;;;;;;;14.45;7.75;;;4.10;73.80;;;;;;4982889;28;20038;-60
2023/03/17 00:16:48;;;;;;;10.07;7.40;;;4.10;73.90;;;;;;4987404;28;20537;-60
2023/03/17 00:19:16;;;;;;;11.57;7.63;;;4.10;74.10;;;;;;4989975;28;20085;-62
2023/03/17 00:21:42;;;;;;;12.02;7.63;;;4.10;74.30;;;;;;4984908;28;20039;-60
2023/03/17 00:24:11;;;;;;;12.18;7.90;;;4.00;74.30;;;;;;4981253;28;20048;-61
2023/03/17 00:26:37;;;;;;;11.18;7.03;;;4.00;74.50;;;;;;4982923;28;20045;-61
2023/03/17 00:29:04;;;;;;;12.30;7.72;;;4.00;74.50;;;;;;4981981;28;20498;-61
2023/03/17 00:31:31;;;;;;;13.70;8.30;;;4.00;74.50;;;;;;4982402;28;20572;-59
2023/03/17 00:33:57;;;;;;;12.68;8.43;;;3.90;74.30;;;;;;4980380;28;20126;-60
2023/03/17 00:36:26;;;;;;;13.70;8.25;;;3.90;74.40;;;;;;4982468;28;20529;-62
2023/03/17 00:38:52;;;;;;;12.80;8.57;;;3.90;74.70;;;;;;4980884;28;20033;-61
2023/03/17 00:41:18;;;;;;;14.93;9.85;;;3.90;74.70;;;;;;4977294;28;20089;-61
2023/03/17 00:43:44;;;;;;;17.27;9.70;;;3.90;74.80;;;;;;4984757;28;20038;-61
2023/03/17 00:46:15;;;;;;;17.13;9.52;;;3.90;74.80;;;;;;4981489;28;20042;-59
2023/03/17 00:48:43;;;;;;;15.70;9.07;;;3.80;75.00;;;;;;4981278;28;20529;-61
2023/03/17 00:51:09;;;;;;;15.30;9.32;;;3.80;74.90;;;;;;4981539;28;20041;-62
2023/03/17 00:53:35;;;;;;;12.30;8.95;;;3.80;74.90;;;;;;4975709;28;20121;-60
2023/03/17 00:56:01;;;;;;;16.42;10.15;;;3.80;74.90;;;;;;4980543;28;20084;-60
2023/03/17 00:58:29;;;;;;;18.02;10.77;;;3.80;75.10;;;;;;4981754;28;20034;-60
2023/03/17 01:00:55;;;;;;;15.18;9.98;;;3.80;75.20;;;;;;4982649;28;20037;-62
2023/03/17 01:03:21;;;;;;;18.15;10.95;;;3.80;75.10;;;;;;4979818;28;20104;-61
2023/03/17 01:05:48;;;;;;;22.30;11.95;;;3.80;75.10;;;;;;4982789;28;20525;-62
2023/03/17 01:08:15;;;;;;;19.25;10.88;;;3.80;75.20;;;;;;4982774;28;20039;-61
2023/03/17 01:10:41;;;;;;;18.40;10.68;;;3.80;75.30;;;;;;4980414;28;20046;-62
2023/03/17 01:13:10;;;;;;;16.33;10.43;;;3.80;75.30;;;;;;4979557;28;20493;-62
2023/03/17 01:15:38;;;;;;;18.27;10.20;;;3.70;75.30;;;;;;4979061;28;20030;-62
2023/03/17 01:18:04;;;;;;;17.70;10.40;;;3.70;75.40;;;;;;4986867;28;20046;-60
2023/03/17 01:20:32;;;;;;;16.48;10.00;;;3.70;75.50;;;;;;4981283;28;20081;-60
2023/03/17 01:22:59;;;;;;;16.48;9.70;;;3.70;75.60;;;;;;4981911;28;20398;-61
2023/03/17 01:25:26;;;;;;;14.73;8.95;;;3.70;75.70;;;;;;4983235;28;20072;-61
2023/03/17 01:27:55;;;;;;;15.13;9.50;;;3.70;75.70;;;;;;4979305;28;20130;-62
2023/03/17 01:30:30;;;;;;;14.63;9.27;;;3.80;75.90;;;;;;4981547;28;20501;-61
2023/03/17 01:32:57;;;;;;;14.20;9.25;;;3.70;75.80;;;;;;4979534;28;20049;-61
2023/03/17 01:35:24;;;;;;;19.30;9.90;;;3.70;75.90;;;;;;4979301;28;20054;-60
2023/03/17 01:37:51;;;;;;;13.88;9.73;;;3.70;76.00;;;;;;4993254;28;20166;-61
2023/03/17 01:40:21;;;;;;;16.10;9.13;;;3.70;76.00;;;;;;4975038;28;20146;-62
2023/03/17 01:43:08;;;;;;;14.45;9.02;;;3.70;76.20;;;;;;4977433;28;20030;-61
2023/03/17 01:46:12;;;;;;;15.75;9.35;;;3.70;76.20;;;;;;4967459;28;20534;-60
2023/03/17 01:48:54;;;;;;;15.23;9.27;;;3.70;76.80;;;;;;4975515;28;20042;-60
2023/03/17 01:51:26;;;;;;;13.30;8.98;;;3.70;76.20;;;;;;4982227;28;20031;-61
2023/03/17 01:53:53;;;;;;;12.52;8.80;;;3.70;76.40;;;;;;4985444;28;20034;-62
2023/03/17 01:56:20;;;;;;;12.60;8.85;;;3.70;76.40;;;;;;4979192;28;20621;-60
2023/03/17 01:58:51;;;;;;;18.30;9.02;;;3.70;76.40;;;;;;4978242;28;20125;-61
2023/03/17 02:01:22;;;;;;;12.95;8.68;;;3.70;76.40;;;;;;4977323;28;20060;-61
2023/03/17 02:03:49;;;;;;;14.93;8.90;;;3.70;76.50;;;;;;4983764;28;20130;-60
2023/03/17 02:06:15;;;;;;;12.07;8.00;;;3.70;76.40;;;;;;4977301;28;20042;-61
2023/03/17 02:08:41;;;;;;;11.40;8.27;;;3.70;76.20;;;;;;4997767;28;20034;-61
2023/03/17 02:11:07;;;;;;;13.98;8.07;;;3.80;76.20;;;;;;4976557;28;20058;-60
2023/03/17 02:13:33;;;;;;;12.20;7.90;;;3.80;76.10;;;;;;4972233;28;20038;-61
2023/03/17 02:15:59;;;;;;;12.00;8.02;;;3.80;76.00;;;;;;4981756;28;20068;-62
2023/03/17 02:18:25;;;;;;;12.57;7.95;;;3.80;76.00;;;;;;4984875;28;20052;-61
2023/03/17 02:21:30;;;;;;;13.30;7.88;;;3.80;76.10;;;;;;4981665;28;20034;-60
2023/03/17 02:23:56;;;;;;;12.43;8.20;;;3.90;76.70;;;;;;4979904;28;20174;-62
2023/03/17 02:26:24;;;;;;;11.70;8.40;;;3.90;76.00;;;;;;4979572;28;20510;-62
2023/03/17 02:28:50;;;;;;;14.05;8.48;;;3.90;76.10;;;;;;4976038;28;20096;-60
2023/03/17 02:31:16;;;;;;;13.73;8.20;;;3.90;76.20;;;;;;4977772;28;20042;-61
2023/03/17 02:33:41;;;;;;;12.15;8.68;;;3.90;76.20;;;;;;4979625;28;20461;-61
2023/03/17 02:36:09;;;;;;;13.63;8.82;;;3.90;76.20;;;;;;4980373;28;20694;-60
2023/03/17 02:38:36;;;;;;;13.68;8.65;;;3.90;76.10;;;;;;4982896;28;20088;-60
2023/03/17 02:41:01;;;;;;;14.25;9.07;;;3.90;76.20;;;;;;4979238;28;20490;-61
2023/03/17 02:43:27;;;;;;;16.20;10.00;;;3.90;76.20;;;;;;4975529;28;20049;-61
2023/03/17 02:45:53;;;;;;;39.45;15.63;;;3.90;76.30;;;;;;4976722;28;20074;-61
2023/03/17 02:48:19;;;;;;;33.35;14.23;;;3.90;76.50;;;;;;4981368;28;20036;-62
2023/03/17 02:50:44;;;;;;;27.83;13.30;;;3.90;76.70;;;;;;4978417;28;20050;-61
2023/03/17 02:53:10;;;;;;;26.95;12.52;;;3.90;76.90;;;;;;4996398;28;20039;-62
2023/03/17 02:55:36;;;;;;;24.95;12.02;;;3.90;77.70;;;;;;4982661;28;20046;-60
2023/03/17 02:58:02;;;;;;;22.73;11.70;;;3.90;76.90;;;;;;4980958;28;20038;-62
2023/03/17 03:00:28;;;;;;;23.27;11.50;;;3.90;76.90;;;;;;4974633;28;20140;-60
2023/03/17 03:02:54;;;;;;;22.70;11.40;;;3.90;76.90;;;;;;4978896;28;20502;-61
2023/03/17 03:05:20;;;;;;;17.33;10.98;;;4.00;76.80;;;;;;4978250;28;20041;-62
2023/03/17 03:07:45;;;;;;;19.20;11.25;;;4.00;76.80;;;;;;4979401;28;20038;-60
2023/03/17 03:10:11;;;;;;;17.08;10.10;;;3.90;76.70;;;;;;4980416;28;20035;-61
2023/03/17 03:12:37;;;;;;;16.92;10.70;;;3.90;76.70;;;;;;4976630;28;20035;-63
2023/03/17 03:15:02;;;;;;;19.50;10.27;;;3.90;76.70;;;;;;4976613;28;20043;-62
2023/03/17 03:17:28;;;;;;;16.40;10.35;;;3.90;76.80;;;;;;4979874;28;20085;-62
2023/03/17 03:19:54;;;;;;;12.48;9.38;;;3.90;76.90;;;;;;4977892;28;20022;-62
2023/03/17 03:22:19;;;;;;;14.90;9.88;;;3.90;77.10;;;;;;4974982;28;20026;-63
2023/03/17 03:24:45;;;;;;;14.35;9.50;;;3.90;77.10;;;;;;4982685;28;20521;-61
2023/03/17 03:27:11;;;;;;;15.38;9.48;;;3.90;77.10;;;;;;4979867;28;20129;-61
2023/03/17 03:29:37;;;;;;;13.85;9.88;;;3.90;77.00;;;;;;4979628;28;20054;-60
2023/03/17 03:32:03;;;;;;;14.27;9.98;;;3.90;77.00;;;;;;4980884;28;20034;-60
2023/03/17 03:34:28;;;;;;;14.05;9.43;;;3.90;77.00;;;;;;4980596;28;20042;-61
2023/03/17 03:36:54;;;;;;;14.27;9.75;;;3.90;77.10;;;;;;4977495;28;20168;-60
2023/03/17 03:39:20;;;;;;;12.73;8.82;;;3.90;77.10;;;;;;4979357;28;20046;-60
2023/03/17 03:41:46;;;;;;;13.25;8.82;;;3.90;77.10;;;;;;4978120;28;20155;-61
2023/03/17 03:44:11;;;;;;;11.82;8.45;;;3.90;77.10;;;;;;4979057;28;20026;-60
2023/03/17 03:46:37;;;;;;;12.65;9.02;;;3.90;77.10;;;;;;4977937;28;20046;-61
2023/03/17 03:49:02;;;;;;;15.10;10.07;;;3.90;77.00;;;;;;4981058;28;20108;-61
2023/03/17 03:51:28;;;;;;;14.00;9.68;;;4.00;77.00;;;;;;4977922;28;20065;-61
2023/03/17 03:53:54;;;;;;;15.27;9.40;;;3.90;76.90;;;;;;4978613;28;20034;-61
2023/03/17 03:56:19;;;;;;;16.42;10.07;;;3.90;76.90;;;;;;4979301;28;20042;-61
2023/03/17 03:58:45;;;;;;;13.60;9.48;;;3.90;76.90;;;;;;4976444;28;20050;-60
2023/03/17 04:01:11;;;;;;;13.60;9.85;;;3.90;77.00;;;;;;4978388;28;20054;-60
2023/03/17 04:03:37;;;;;;;13.63;9.65;;;3.90;77.00;;;;;;4978653;28;20121;-61
2023/03/17 04:06:03;;;;;;;14.60;9.35;;;3.90;77.10;;;;;;4973930;28;20096;-62
2023/03/17 04:08:30;;;;;;;16.25;10.05;;;3.90;77.20;;;;;;4974513;28;20038;-61
2023/03/17 04:10:56;;;;;;;15.00;9.60;;;3.80;77.30;;;;;;4980797;28;20160;-60
2023/03/17 04:13:22;;;;;;;15.75;9.98;;;3.80;77.30;;;;;;4977310;28;20249;-62
2023/03/17 04:15:48;;;;;;;14.13;9.80;;;3.80;77.40;;;;;;4977118;28;20038;-58
2023/03/17 04:18:13;;;;;;;13.85;9.98;;;3.80;77.40;;;;;;4978418;28;20035;-61
2023/03/17 04:20:39;;;;;;;15.40;10.23;;;3.80;77.50;;;;;;4979004;28;20410;-61
2023/03/17 04:23:05;;;;;;;15.20;9.38;;;3.80;77.60;;;;;;4976391;28;20058;-60
2023/03/17 04:25:31;;;;;;;14.40;10.18;;;3.80;77.60;;;;;;4978838;28;20065;-62
2023/03/17 04:27:57;;;;;;;17.10;10.02;;;3.80;77.60;;;;;;4976401;28;20030;-61
2023/03/17 04:30:23;;;;;;;16.73;10.48;;;3.80;77.60;;;;;;4975987;28;20505;-62
2023/03/17 04:32:49;;;;;;;15.90;10.63;;;3.80;77.80;;;;;;4983182;28;20081;-61
2023/03/17 04:35:17;;;;;;;16.42;10.40;;;3.80;77.80;;;;;;4981419;28;20125;-60
2023/03/17 04:37:43;;;;;;;15.63;10.25;;;3.80;78.00;;;;;;4982957;28;20042;-61
2023/03/17 04:40:11;;;;;;;17.58;10.95;;;3.80;77.90;;;;;;4983696;28;20053;-61
2023/03/17 04:42:37;;;;;;;15.52;10.45;;;3.80;78.00;;;;;;4981631;28;20073;-62
2023/03/17 04:45:05;;;;;;;16.60;10.43;;;3.80;78.00;;;;;;4984149;28;20053;-62
2023/03/17 04:47:31;;;;;;;16.60;10.55;;;3.80;78.00;;;;;;4982402;28;20065;-62
2023/03/17 04:49:57;;;;;;;16.40;10.60;;;3.80;78.10;;;;;;4983829;28;20125;-62
2023/03/17 04:52:22;;;;;;;15.65;10.32;;;3.80;78.10;;;;;;4979623;28;20038;-60
2023/03/17 04:54:48;;;;;;;19.40;11.15;;;3.80;78.00;;;;;;4982590;28;20510;-60
2023/03/17 04:57:13;;;;;;;15.57;10.88;;;3.80;78.00;;;;;;4979238;28;20391;-62
2023/03/17 04:59:39;;;;;;;16.95;10.90;;;3.80;77.90;;;;;;4974684;28;20043;-62
2023/03/17 05:02:05;;;;;;;15.00;10.68;;;3.80;77.80;;;;;;4985617;28;20046;-60
2023/03/17 05:04:31;;;;;;;17.50;10.95;;;3.80;77.80;;;;;;4978138;28;20038;-60
2023/03/17 05:06:57;;;;;;;15.45;11.00;;;3.80;77.90;;;;;;4979777;28;20127;-60
2023/03/17 05:09:23;;;;;;;18.30;10.82;;;3.80;78.00;;;;;;4977391;28;20037;-60
2023/03/17 05:11:50;;;;;;;19.45;10.27;;;3.80;78.10;;;;;;4979576;28;20030;-62
2023/03/17 05:14:15;;;;;;;16.10;10.77;;;3.80;78.00;;;;;;4977463;28;20121;-62
2023/03/17 05:16:41;;;;;;;17.10;10.75;;;3.80;78.00;;;;;;4981170;28;20529;-60
2023/03/17 05:19:07;;;;;;;17.02;11.02;;;3.80;77.90;;;;;;4979500;28;20038;-62
2023/03/17 05:21:32;;;;;;;18.58;12.23;;;3.80;77.90;;;;;;4979700;28;20034;-63
2023/03/17 05:23:58;;;;;;;20.00;12.25;;;3.90;77.90;;;;;;4984748;28;20030;-61
2023/03/17 05:26:24;;;;;;;18.23;11.40;;;3.90;77.80;;;;;;4996782;28;20494;-61
2023/03/17 05:28:49;;;;;;;22.80;13.45;;;3.90;77.60;;;;;;4981549;28;20514;-61
2023/03/17 05:31:15;;;;;;;23.02;14.80;;;3.90;77.60;;;;;;4972631;28;20072;-62
2023/03/17 05:33:40;;;;;;;25.73;14.20;;;3.80;77.60;;;;;;4978861;28;20473;-61
2023/03/17 05:36:06;;;;;;;24.27;14.73;;;3.80;77.60;;;;;;4978810;28;20038;-59
2023/03/17 05:38:32;;;;;;;23.58;14.40;;;3.80;77.60;;;;;;4979069;28;20506;-62
2023/03/17 05:40:57;;;;;;;21.95;14.07;;;3.80;77.70;;;;;;4977695;28;20042;-60
2023/03/17 05:43:23;;;;;;;20.17;13.98;;;3.80;77.60;;;;;;4978758;28;20053;-62
2023/03/17 05:45:49;;;;;;;21.50;13.38;;;3.80;77.60;;;;;;4977500;28;20277;-61
2023/03/17 05:48:15;;;;;;;19.40;12.98;;;3.80;77.60;;;;;;4973811;28;20030;-62
2023/03/17 05:50:41;;;;;;;20.23;13.43;;;3.80;77.60;;;;;;4975110;28;20034;-60
2023/03/17 05:53:07;;;;;;;22.67;13.40;;;3.80;77.60;;;;;;4977696;28;20092;-60
2023/03/17 05:55:33;;;;;;;22.25;12.95;;;3.80;77.70;;;;;;4981806;28;20417;-62
2023/03/17 05:57:59;;;;;;;20.10;12.35;;;3.80;77.60;;;;;;4979023;28;20533;-61
2023/03/17 06:00:27;;;;;;;19.83;11.73;;;3.80;77.60;;;;;;4981810;28;20073;-62
2023/03/17 06:02:53;;;;;;;18.20;11.75;;;3.70;77.60;;;;;;4980710;28;20092;-62
2023/03/17 06:05:18;;;;;;;15.82;10.77;;;3.70;77.70;;;;;;4981655;28;20457;-63
2023/03/17 06:07:44;;;;;;;13.82;9.80;;;3.70;77.80;;;;;;4980610;28;20068;-61
2023/03/17 06:10:11;;;;;;;14.40;10.13;;;3.70;77.80;;;;;;4978809;28;20039;-60
2023/03/17 06:12:36;;;;;;;13.98;9.38;;;3.70;78.00;;;;;;4979365;28;20039;-61
2023/03/17 06:15:02;;;;;;;13.75;9.77;;;3.70;78.00;;;;;;4981036;28;20124;-61
2023/03/17 06:17:28;;;;;;;21.98;11.45;;;3.70;78.20;;;;;;4981710;28;20048;-63
2023/03/17 06:19:54;;;;;;;18.17;11.98;;;3.70;78.30;;;;;;4979736;28;20061;-62
2023/03/17 06:22:19;;;;;;;19.05;12.68;;;3.70;78.50;;;;;;4981694;28;20564;-59
2023/03/17 06:24:45;;;;;;;23.52;13.50;;;3.60;78.80;;;;;;4983266;28;20074;-62
2023/03/17 06:27:11;;;;;;;24.48;15.50;;;3.60;78.90;;;;;;4981553;28;20394;-61
2023/03/17 06:29:37;;;;;;;28.48;15.43;;;3.60;79.20;;;;;;4978995;28;20429;-62
2023/03/17 06:32:03;;;;;;;24.00;14.60;;;3.60;79.10;;;;;;4980914;28;20131;-61
2023/03/17 06:34:29;;;;;;;21.80;14.60;;;3.70;79.30;;;;;;4980880;28;20030;-60
2023/03/17 06:36:55;;;;;;;20.70;14.38;;;3.70;79.30;;;;;;4982126;28;20070;-61
2023/03/17 06:39:21;;;;;;;21.75;14.73;;;3.70;79.40;;;;;;4982497;28;20073;-63
2023/03/17 06:41:47;;;;;;;22.63;14.15;;;3.80;79.50;;;;;;4978966;28;20157;-61
2023/03/17 06:44:13;;;;;;;26.50;13.98;;;3.70;79.30;;;;;;4979772;28;20460;-62
2023/03/17 06:46:39;;;;;;;26.27;14.05;;;3.80;79.50;;;;;;4979864;28;20587;-61
2023/03/17 06:49:06;;;;;;;24.80;13.68;;;3.80;79.50;;;;;;4981071;28;20050;-63
2023/03/17 06:51:35;;;;;;;21.98;14.45;;;3.80;79.50;;;;;;4979479;28;20037;-61
2023/03/17 06:54:00;;;;;;;23.48;14.00;;;3.90;79.60;;;;;;4981125;28;20522;-62
2023/03/17 06:56:26;;;;;;;25.25;14.90;;;3.90;79.50;;;;;;4979261;28;20038;-62
2023/03/17 06:58:52;;;;;;;22.40;12.95;;;4.00;79.50;;;;;;4975610;28;20468;-63
2023/03/17 07:01:18;;;;;;;23.77;14.60;;;4.00;79.50;;;;;;4979071;28;20038;-64
2023/03/17 07:03:44;;;;;;;24.95;13.98;;;4.10;79.50;;;;;;4981350;28;20060;-64
2023/03/17 07:06:10;;;;;;;25.02;14.90;;;4.10;79.40;;;;;;4980572;28;20505;-62
2023/03/17 07:08:35;;;;;;;19.67;12.27;;;4.20;79.40;;;;;;4977535;28;20488;-62
2023/03/17 07:11:02;;;;;;;19.83;12.82;;;4.30;79.40;;;;;;4974854;28;20038;-63
2023/03/17 07:13:30;;;;;;;20.20;12.30;;;4.20;79.30;;;;;;4978939;28;20069;-62
2023/03/17 07:15:56;;;;;;;17.45;12.15;;;4.30;79.20;;;;;;4981505;28;20038;-62
2023/03/17 07:18:22;;;;;;;16.75;12.38;;;4.30;79.20;;;;;;4980569;28;20366;-63
2023/03/17 07:20:48;;;;;;;19.52;12.35;;;4.40;79.50;;;;;;4978706;28;20561;-60
2023/03/17 07:23:17;;;;;;;20.55;12.77;;;4.40;79.40;;;;;;4977991;28;20125;-64
2023/03/17 07:25:44;;;;;;;19.70;12.02;;;4.40;79.60;;;;;;4980837;28;20767;-59
2023/03/17 07:28:10;;;;;;;17.35;12.38;;;4.50;79.80;;;;;;4977574;28;20039;-62
2023/03/17 07:30:36;;;;;;;16.85;11.70;;;4.60;79.80;;;;;;4973755;28;20048;-63
2023/03/17 07:33:03;;;;;;;21.67;12.43;;;4.60;79.70;;;;;;4978591;28;20042;-63
2023/03/17 07:35:30;;;;;;;15.75;11.93;;;4.70;79.80;;;;;;4979718;28;20034;-63
2023/03/17 07:37:55;;;;;;;19.48;11.98;;;4.70;79.50;;;;;;4978521;28;20053;-64
2023/03/17 07:40:21;;;;;;;19.40;12.95;;;4.80;79.60;;;;;;4975331;28;20497;-62
2023/03/17 07:42:46;;;;;;;18.60;12.90;;;4.90;79.60;;;;;;4976516;28;21940;-63
2023/03/17 07:45:12;;;;;;;20.67;12.52;;;5.00;79.70;;;;;;4979718;28;20042;-60
2023/03/17 07:47:38;;;;;;;15.90;12.05;;;5.00;79.30;;;;;;4980061;28;20047;-62
2023/03/17 07:50:04;;;;;;;18.13;12.50;;;5.10;79.40;;;;;;4978547;28;20038;-63
2023/03/17 07:52:30;;;;;;;16.73;12.43;;;5.10;79.40;;;;;;4967764;28;20458;-62
2023/03/17 07:54:57;;;;;;;16.92;12.05;;;5.20;79.30;;;;;;4974490;28;20034;-60
2023/03/17 07:57:23;;;;;;;15.90;11.23;;;5.20;79.20;;;;;;4978450;28;20418;-62
2023/03/17 07:59:49;;;;;;;16.42;11.30;;;5.30;79.00;;;;;;4980374;28;20129;-62
2023/03/17 08:02:15;;;;;;;16.52;12.20;;;5.30;78.90;;;;;;4981293;28;20035;-63
2023/03/17 08:04:42;;;;;;;18.02;12.75;;;5.40;78.80;;;;;;4979545;28;20525;-64
2023/03/17 08:07:07;;;;;;;19.15;12.85;;;5.40;79.10;;;;;;4982137;28;20054;-62
2023/03/17 08:09:33;;;;;;;17.50;12.45;;;5.50;79.00;;;;;;4981644;28;20031;-61
2023/03/17 08:11:58;;;;;;;18.25;13.15;;;5.60;79.20;;;;;;4979501;28;20246;-61
2023/03/17 08:14:24;;;;;;;17.92;12.27;;;5.60;79.20;;;;;;4981800;28;20172;-63
2023/03/17 08:16:50;;;;;;;16.40;11.98;;;5.70;79.00;;;;;;4981697;28;20042;-59
2023/03/17 08:19:15;;;;;;;16.88;12.35;;;5.70;78.80;;;;;;4979229;28;20042;-62
2023/03/17 08:21:41;;;;;;;14.52;10.93;;;5.70;78.70;;;;;;4992490;28;20097;-62
2023/03/17 08:24:07;;;;;;;17.00;12.15;;;5.80;78.80;;;;;;4975973;28;20038;-61
2023/03/17 08:26:33;;;;;;;16.23;11.35;;;5.90;78.80;;;;;;4978142;28;20042;-61
2023/03/17 08:28:59;;;;;;;15.93;11.73;;;6.00;78.80;;;;;;4983441;28;20578;-61
2023/03/17 08:31:25;;;;;;;15.95;11.73;;;6.00;78.70;;;;;;4983034;28;20121;-64
2023/03/17 08:33:53;;;;;;;15.63;12.23;;;6.20;78.60;;;;;;4977634;28;20790;-65
2023/03/17 08:36:19;;;;;;;16.00;11.40;;;6.20;78.40;;;;;;4980343;28;20522;-62
2023/03/17 08:38:46;;;;;;;16.73;12.68;;;6.30;78.30;;;;;;4981965;28;20529;-63
2023/03/17 08:41:15;;;;;;;16.95;12.32;;;6.40;78.10;;;;;;4978871;28;20537;-62
2023/03/17 08:43:42;;;;;;;15.80;12.02;;;6.50;77.80;;;;;;4981629;28;20039;-63
2023/03/17 08:46:15;;;;;;;16.15;11.88;;;6.50;77.70;;;;;;4979069;28;20046;-62
2023/03/17 08:48:41;;;;;;;15.00;11.85;;;6.60;77.90;;;;;;4981624;28;20149;-62
2023/03/17 08:51:07;;;;;;;17.20;12.32;;;6.70;77.90;;;;;;4980730;28;20034;-61
2023/03/17 08:53:33;;;;;;;15.70;11.90;;;6.80;77.90;;;;;;4984407;28;20038;-63
2023/03/17 08:56:00;;;;;;;17.85;11.77;;;6.80;77.60;;;;;;4979178;28;20402;-61
2023/03/17 08:58:27;;;;;;;16.30;11.45;;;6.90;77.50;;;;;;4978616;28;20039;-65
2023/03/17 09:00:53;;;;;;;15.48;11.48;;;7.00;77.40;;;;;;4978031;28;20754;-63
2023/03/17 09:03:19;;;;;;;15.13;10.85;;;7.10;77.50;;;;;;4976908;28;20079;-62
2023/03/17 09:05:46;;;;;;;19.15;12.13;;;7.20;77.50;;;;;;4977913;28;20049;-62
2023/03/17 09:08:11;;;;;;;19.92;12.85;;;7.30;77.40;;;;;;4981934;28;20130;-62
2023/03/17 09:10:37;;;;;;;16.98;11.55;;;7.40;77.20;;;;;;4981812;28;20121;-62
2023/03/17 09:13:03;;;;;;;17.38;12.00;;;7.50;76.80;;;;;;4983213;28;20499;-60
2023/03/17 09:15:32;;;;;;;17.35;11.50;;;7.70;76.70;;;;;;4982501;28;20092;-63
2023/03/17 09:17:58;;;;;;;15.02;11.30;;;7.80;76.40;;;;;;4983107;28;20050;-60
2023/03/17 09:20:24;;;;;;;16.10;11.57;;;7.90;76.10;;;;;;4981926;28;20069;-62
2023/03/17 09:22:53;;;;;;;15.70;11.45;;;8.00;75.90;;;;;;4980954;28;20049;-61
2023/03/17 09:25:19;;;;;;;14.60;10.50;;;8.10;75.80;;;;;;4981165;28;20246;-61
2023/03/17 09:27:45;;;;;;;14.05;10.40;;;8.20;76.60;;;;;;4980043;28;20034;-62
2023/03/17 09:30:12;;;;;;;12.05;9.80;;;8.30;75.60;;;;;;4976281;28;20042;-62
2023/03/17 09:32:38;;;;;;;14.20;10.45;;;8.40;75.50;;;;;;4979562;28;20125;-62
2023/03/17 09:35:04;;;;;;;13.82;10.02;;;8.50;75.10;;;;;;4978747;28;20050;-62
2023/03/17 09:37:31;;;;;;;11.48;9.27;;;8.60;75.50;;;;;;4980984;28;20038;-61
2023/03/17 09:39:57;;;;;;;12.40;9.20;;;8.70;75.40;;;;;;4981116;28;20278;-61
2023/03/17 09:42:50;;;;;;;13.60;9.63;;;8.80;75.40;;;;;;4976611;28;20031;-62
2023/03/17 09:45:25;;;;;;;10.82;8.93;;;9.00;75.60;;;;;;4981665;28;20042;-62
2023/03/17 09:48:05;;;;;;;13.13;9.05;;;9.10;75.70;;;;;;4980571;28;20061;-62
2023/03/17 09:50:35;;;;;;;13.15;9.77;;;9.30;74.70;;;;;;4977982;28;20532;-61
2023/03/17 09:53:03;;;;;;;10.35;8.45;;;9.40;74.40;;;;;;4982242;28;20407;-63
2023/03/17 09:55:31;;;;;;;12.38;8.40;;;9.50;74.20;;;;;;4982986;28;20373;-61
2023/03/17 09:57:57;;;;;;;9.68;8.00;;;9.60;74.00;;;;;;4978790;28;20122;-62
2023/03/17 10:00:28;;;;;;;12.25;8.57;;;9.70;73.90;;;;;;4980048;28;20398;-62
2023/03/17 10:02:57;;;;;;;13.40;8.10;;;9.80;73.70;;;;;;4977104;28;20321;-63
2023/03/17 10:05:27;;;;;;;33.25;17.50;;;9.90;73.50;;;;;;4980911;28;20085;-62
2023/03/17 10:08:16;;;;;;;13.93;10.05;;;10.10;73.00;;;;;;4981600;28;20085;-61
2023/03/17 10:11:21;;;;;;;13.23;8.85;;;10.30;72.10;;;;;;4980079;28;20435;-62
2023/03/17 10:14:31;;;;;;;12.00;8.68;;;10.40;72.10;;;;;;4976466;28;20129;-62
2023/03/17 10:17:02;;;;;;;10.35;7.95;;;10.50;72.00;;;;;;4934502;28;20085;-62
2023/03/17 10:19:39;;;;;;;14.02;9.93;;;10.70;72.00;;;;;;4980143;28;20592;-62
2023/03/17 10:22:18;;;;;;;12.32;9.43;;;10.80;72.10;;;;;;4977690;28;20057;-63
2023/03/17 10:25:08;;;;;;;12.57;9.63;;;10.90;72.10;;;;;;4980778;28;20054;-62
2023/03/17 10:27:36;;;;;;;13.75;9.13;;;11.00;71.90;;;;;;4969056;28;20040;-62
2023/03/17 10:30:03;;;;;;;12.07;9.63;;;11.20;71.40;;;;;;4940342;28;1102290;-62
2023/03/17 10:32:31;;;;;;;15.13;9.82;;;11.30;71.10;;;;;;4977574;28;20058;-62
2023/03/17 10:34:57;;;;;;;11.55;9.15;;;11.40;70.90;;;;;;4983633;28;20030;-62
2023/03/17 10:37:23;;;;;;;17.05;9.38;;;11.50;70.90;;;;;;4982821;28;22283;-62
2023/03/17 10:39:53;;;;;;;10.52;7.82;;;11.60;70.60;;;;;;4980111;28;20735;-61
2023/03/17 10:42:21;;;;;;;11.70;8.77;;;11.70;70.70;;;;;;4976431;28;20116;-62
2023/03/17 10:44:52;;;;;;;10.40;8.77;;;11.80;70.40;;;;;;4978965;28;20585;-63
2023/03/17 10:47:37;;;;;;;12.02;8.55;;;11.90;69.50;;;;;;4983055;28;20034;-61
2023/03/17 10:50:33;;;;;;;10.18;8.63;;;12.00;69.70;;;;;;4979550;28;20034;-62
2023/03/17 10:52:59;;;;;;;11.38;8.63;;;12.10;69.70;;;;;;4983176;28;20042;-63
2023/03/17 10:55:28;;;;;;;10.55;8.32;;;12.30;70.20;;;;;;4978939;28;20485;-63
2023/03/17 10:58:02;;;;;;;9.48;8.27;;;12.40;69.90;;;;;;4980064;28;20043;-61
2023/03/17 11:00:32;;;;;;;14.13;8.83;;;12.50;69.40;;;;;;4978151;28;20576;-61
2023/03/17 11:02:59;;;;;;;10.15;8.40;;;12.60;69.20;;;;;;4977399;28;20177;-62
2023/03/17 11:05:27;;;;;;;9.85;7.93;;;12.70;69.00;;;;;;4980307;28;20050;-63
2023/03/17 11:08:05;;;;;;;11.85;8.30;;;12.80;68.90;;;;;;4986273;28;20540;-62
2023/03/17 11:10:36;;;;;;;11.00;8.27;;;12.80;68.40;;;;;;4985504;28;20062;-62
2023/03/17 11:13:02;;;;;;;9.32;7.85;;;12.90;68.40;;;;;;4987777;28;20521;-60
2023/03/17 11:15:32;;;;;;;12.07;8.05;;;13.00;69.30;;;;;;4987932;28;20046;-62
2023/03/17 11:18:12;;;;;;;9.57;7.75;;;13.10;68.00;;;;;;4985415;28;20039;-60
2023/03/17 11:20:49;;;;;;;10.07;7.38;;;13.20;67.40;;;;;;4985876;28;20038;-61
2023/03/17 11:23:35;;;;;;;8.55;6.95;;;13.30;67.40;;;;;;4985027;28;20046;-60
2023/03/17 11:26:30;;;;;;;9.30;7.07;;;13.40;66.90;;;;;;4985928;28;20038;-61
2023/03/17 11:29:21;;;;;;;9.32;7.10;;;13.60;66.30;;;;;;4985762;28;20061;-62
2023/03/17 11:32:10;;;;;;;10.43;6.90;;;13.70;66.70;;;;;;4985878;28;20041;-59
2023/03/17 11:34:46;;;;;;;9.40;6.80;;;13.80;66.60;;;;;;4984389;28;20038;-61
2023/03/17 11:37:30;;;;;;;7.43;6.50;;;13.90;66.00;;;;;;4984830;28;20096;-62
2023/03/17 11:40:20;;;;;;;7.93;7.00;;;14.10;65.70;;;;;;4984538;28;20045;-62
2023/03/17 11:42:55;;;;;;;9.27;7.25;;;14.20;65.10;;;;;;4986146;28;20030;-62
2023/03/17 11:45:51;;;;;;;8.25;7.00;;;14.30;65.90;;;;;;4985635;28;20085;-60
2023/03/17 11:48:33;;;;;;;8.55;6.53;;;14.40;64.00;;;;;;4986441;28;20402;-62
2023/03/17 11:51:02;;;;;;;9.63;7.10;;;14.50;64.50;;;;;;4985543;28;20026;-62
2023/03/17 11:53:33;;;;;;;10.85;7.32;;;14.60;64.30;;;;;;4984451;28;20507;-61
2023/03/17 11:56:15;;;;;;;9.80;7.45;;;14.70;64.10;;;;;;4984677;28;20035;-62
2023/03/17 11:58:43;;;;;;;8.05;7.00;;;14.80;63.30;;;;;;4977912;28;20386;-63
2023/03/17 12:01:14;;;;;;;7.80;6.47;;;14.90;63.60;;;;;;4977350;28;20057;-62
2023/03/17 12:03:51;;;;;;;9.05;7.05;;;15.00;63.50;;;;;;4982685;28;20031;-62
2023/03/17 12:06:46;;;;;;;9.88;7.25;;;15.00;63.30;;;;;;4981902;28;20109;-62
2023/03/17 12:09:26;;;;;;;9.40;6.53;;;15.20;62.70;;;;;;4976748;28;20134;-63
2023/03/17 12:11:54;;;;;;;9.23;6.63;;;15.20;62.80;;;;;;4983377;28;20393;-62
2023/03/17 12:14:28;;;;;;;8.15;6.25;;;15.30;62.70;;;;;;4985070;28;20034;-61
2023/03/17 12:17:18;;;;;;;7.10;6.30;;;15.40;61.80;;;;;;4983703;28;20114;-62
2023/03/17 12:20:08;;;;;;;7.55;6.25;;;15.50;61.00;;;;;;4980939;28;20088;-63
2023/03/17 12:22:38;;;;;;;11.25;6.25;;;15.60;60.80;;;;;;4981868;28;20038;-62
2023/03/17 12:25:24;;;;;;;10.88;6.38;;;15.60;61.70;;;;;;4981987;28;20086;-62
2023/03/17 12:28:13;;;;;;;10.57;7.03;;;15.70;60.70;;;;;;4979309;28;20122;-62
2023/03/17 12:31:05;;;;;;;8.75;6.70;;;15.80;60.90;;;;;;4979575;28;20039;-60
2023/03/17 12:33:34;;;;;;;8.60;6.60;;;15.90;60.00;;;;;;4977207;28;20398;-61
2023/03/17 12:36:02;;;;;;;9.45;7.13;;;16.00;60.40;;;;;;4981189;28;20038;-60
2023/03/17 12:38:42;;;;;;;10.75;6.30;;;16.10;60.80;;;;;;4979674;28;20035;-62
2023/03/17 12:41:22;;;;;;;6.60;5.70;;;16.20;59.80;;;;;;4974886;28;20088;-60
2023/03/17 12:44:25;;;;;;;13.07;7.00;;;16.20;59.90;;;;;;4982127;28;20038;-61
2023/03/17 12:47:21;;;;;;;8.77;5.95;;;16.30;58.70;;;;;;4983414;28;20494;-61
2023/03/17 12:50:08;;;;;;;7.45;5.72;;;16.40;58.50;;;;;;4980618;28;20049;-61
2023/03/17 12:53:04;;;;;;;9.20;5.43;;;16.40;58.80;;;;;;4983469;28;20109;-61